Главная страница
METAR-TAF:

METAR-TAF

Аэропорты :

Хартум, Судан

широта: 15-36N, долгота: 032-33E, высота над уровнем моря: 382 м

Текущие метеонаблюдения

Эта сводка был подготовлена 19 минут назад, в 00:30 UTC
Ветер 10 Узел от северно-северо-западный
Температура 18°C
Влажность 32%
Давление 1016 hPa
Видимость 10 км и более
Нет облачности ниже 1500 м, и нет кучево-дождевой облачности

METAR: HSSS 180030Z 33010KT CAVOK 18/01 Q1016 NOSIG

Время: 02:49 (00:49 UTC)

Прогноз

Эта сводка был подготовлена 1 час и 49 минут назад, в 23:00 UTC
Прогноз действительный с 18-го 00 UTC до 19-го 06 UTC
Ветер 14 Узел от северный с порывами до 24 Узел
Видимость 10 км и более
Нет облачности ниже 1500 м, и нет кучево-дождевой облачности
Вероятность 30%
С 18-го 03 UTC до 18-го 12 UTC
Видимость: 6000 м

TAF: HSSS 172300Z 1800/1906 36014G24KT CAVOK PROB30 1803/1812 6000 NSC

Метеонаблюдения и прогнозы для более 4000 аэропортов (сводки METAR и TAF).

Имеющиеся станции представлены на карте желтыми и красными точками.

Чтобы увидеть название станции, наведите на нее мышь.

Затем щелкните, чтобы увидеть метеонаблюдения и метеопрогнозы.

Управление картой: чтобы увеличить масштаб, щелкните зеленые кнопки с черным крестиком; чтобы уменьшить масштаб, щелкните зеленую кнопку с тире; для просмотра соседних карт щелкайте зеленые стрелки.


METAR-TAF: